Time;durP1;ratioP1;P1;durP2;ratioP2;P2;SDS_P1;SDS_P2;PMS_P1;PMS_P2;Temp;Humidity;BMP_temperature;BMP_pressure;BME280_temperature;BME280_humidity;BME280_pressure;Samples;Min_cycle;Max_cycle;Signal;HPM_P1;HPM_P2
2024/01/12 00:00:23;;;;;;;15.23;12.38;;;7.50;76.60;;;;;;5027038;28;20306;-76
2024/01/12 00:02:49;;;;;;;15.45;11.40;;;7.50;76.60;;;;;;5013741;28;20041;-76
2024/01/12 00:05:15;;;;;;;16.25;12.05;;;7.40;76.60;;;;;;5062921;28;20550;-76
2024/01/12 00:07:40;;;;;;;19.10;12.32;;;7.40;76.60;;;;;;5013697;28;20033;-76
2024/01/12 00:10:08;;;;;;;14.70;11.70;;;7.50;76.60;;;;;;5028770;28;20045;-76
2024/01/12 00:12:34;;;;;;;15.32;11.85;;;7.50;76.70;;;;;;5029802;28;20042;-76
2024/01/12 00:15:00;;;;;;;18.35;12.50;;;7.50;77.40;;;;;;5034461;28;20052;-76
2024/01/12 00:17:26;;;;;;;16.48;12.13;;;7.50;77.10;;;;;;5031676;28;20497;-76
2024/01/12 00:19:51;;;;;;;14.48;12.55;;;7.40;76.60;;;;;;5028610;28;20041;-76
2024/01/12 00:22:17;;;;;;;15.32;11.73;;;7.50;76.60;;;;;;5026872;28;20060;-76
2024/01/12 00:24:43;;;;;;;15.60;11.20;;;7.50;76.70;;;;;;5029617;28;20107;-76
2024/01/12 00:27:08;;;;;;;16.02;12.43;;;7.40;76.60;;;;;;5028532;28;20041;-76
2024/01/12 00:29:34;;;;;;;17.25;11.30;;;7.40;76.60;;;;;;5013066;28;20401;-76
2024/01/12 00:31:59;;;;;;;17.08;11.73;;;7.50;76.60;;;;;;5012206;28;20042;-76
2024/01/12 00:34:25;;;;;;;15.45;13.85;;;7.50;76.70;;;;;;5014420;28;20044;-76
2024/01/12 00:36:53;;;;;;;14.85;13.27;;;7.40;76.70;;;;;;5012205;28;20079;-76
2024/01/12 00:39:19;;;;;;;13.43;10.63;;;7.50;76.80;;;;;;5029188;28;20104;-76
2024/01/12 00:41:45;;;;;;;15.27;10.70;;;7.50;76.70;;;;;;5028697;28;20053;-76
2024/01/12 00:44:11;;;;;;;16.25;11.57;;;7.40;76.70;;;;;;5011968;28;20034;-76
2024/01/12 00:46:36;;;;;;;16.13;13.15;;;7.50;76.80;;;;;;5029460;28;20374;-76
2024/01/12 00:49:02;;;;;;;14.85;11.88;;;7.40;76.80;;;;;;5028543;28;20057;-76
2024/01/12 00:51:27;;;;;;;14.98;10.63;;;7.40;76.80;;;;;;5012677;28;20041;-76
2024/01/12 00:53:53;;;;;;;15.50;13.73;;;7.50;76.80;;;;;;5012687;28;20546;-76
2024/01/12 00:56:19;;;;;;;15.82;11.10;;;7.50;76.90;;;;;;5027909;28;20045;-76
2024/01/12 00:58:45;;;;;;;14.50;10.88;;;7.50;76.80;;;;;;5028360;28;20432;-76
2024/01/12 01:01:10;;;;;;;13.30;9.88;;;7.40;76.80;;;;;;5028219;28;20132;-76
2024/01/12 01:03:36;;;;;;;15.57;11.75;;;7.50;76.90;;;;;;5030586;28;20031;-76
2024/01/12 01:06:02;;;;;;;14.57;11.60;;;7.40;76.90;;;;;;5029388;28;20052;-76
2024/01/12 01:08:28;;;;;;;14.57;10.68;;;7.50;77.00;;;;;;5027969;28;20049;-76
2024/01/12 01:10:54;;;;;;;13.93;11.38;;;7.50;76.90;;;;;;5028781;28;20090;-76
2024/01/12 01:13:19;;;;;;;13.95;11.15;;;7.50;77.00;;;;;;5027345;28;20127;-76
2024/01/12 01:15:45;;;;;;;15.02;10.70;;;7.50;76.90;;;;;;5030313;28;20041;-76
2024/01/12 01:18:11;;;;;;;14.70;10.35;;;7.50;76.90;;;;;;5011403;28;20091;-76
2024/01/12 01:20:38;;;;;;;14.90;10.35;;;7.50;76.90;;;;;;5045162;28;20539;-76
2024/01/12 01:23:04;;;;;;;12.63;10.00;;;7.50;77.00;;;;;;5012540;28;20038;-76
2024/01/12 01:25:29;;;;;;;13.88;9.90;;;7.50;77.00;;;;;;5032270;28;20044;-77
2024/01/12 01:27:55;;;;;;;12.05;9.75;;;7.50;77.00;;;;;;5028552;28;20044;-76
2024/01/12 01:30:21;;;;;;;14.27;10.75;;;7.50;77.00;;;;;;5011996;28;20047;-76
2024/01/12 01:32:50;;;;;;;13.77;10.63;;;7.50;77.10;;;;;;5011412;28;20052;-76
2024/01/12 01:35:16;;;;;;;13.85;10.02;;;7.50;77.10;;;;;;5042165;28;20084;-76
2024/01/12 01:37:43;;;;;;;13.43;8.82;;;7.50;77.10;;;;;;5033739;28;20401;-76
2024/01/12 01:40:09;;;;;;;16.88;8.93;;;7.50;77.10;;;;;;5031780;28;20155;-76
2024/01/12 01:42:35;;;;;;;11.55;8.88;;;7.50;77.10;;;;;;5031857;28;20065;-76
2024/01/12 01:45:02;;;;;;;13.45;10.07;;;7.50;77.10;;;;;;5032747;28;20107;-76
2024/01/12 01:47:28;;;;;;;12.23;9.05;;;7.50;77.10;;;;;;5016505;28;20042;-76
2024/01/12 01:49:55;;;;;;;13.18;10.32;;;7.50;77.10;;;;;;5014143;28;20493;-76
2024/01/12 01:52:22;;;;;;;13.65;9.43;;;7.50;77.90;;;;;;5030803;28;20037;-77
2024/01/12 01:54:48;;;;;;;12.73;8.95;;;7.50;77.10;;;;;;5014703;28;20045;-76
2024/01/12 01:57:14;;;;;;;12.23;9.93;;;7.50;77.10;;;;;;5022877;28;20488;-76
2024/01/12 01:59:41;;;;;;;14.48;10.00;;;7.50;77.20;;;;;;5013989;28;20084;-77
2024/01/12 02:02:08;;;;;;;11.93;8.85;;;7.50;77.10;;;;;;5031407;28;20049;-76
2024/01/12 02:04:35;;;;;;;12.55;8.68;;;7.50;77.10;;;;;;5031384;28;20106;-77
2024/01/12 02:07:02;;;;;;;14.20;8.10;;;7.60;77.20;;;;;;5018324;28;20033;-76
2024/01/12 02:09:31;;;;;;;11.75;8.43;;;7.60;77.20;;;;;;5031451;28;20060;-77
2024/01/12 02:11:57;;;;;;;11.30;8.32;;;7.50;77.20;;;;;;5030935;28;20045;-76
2024/01/12 02:14:23;;;;;;;11.20;8.45;;;7.60;77.20;;;;;;5031130;28;20040;-76
2024/01/12 02:16:49;;;;;;;11.25;7.95;;;7.50;77.20;;;;;;5013262;28;20128;-76
2024/01/12 02:19:14;;;;;;;11.00;7.82;;;7.50;77.20;;;;;;5063913;28;20076;-77
2024/01/12 02:21:40;;;;;;;12.05;7.75;;;7.60;77.30;;;;;;5031109;28;20037;-76
2024/01/12 02:24:06;;;;;;;10.48;7.43;;;7.60;77.30;;;;;;5014369;28;20037;-76
2024/01/12 02:26:31;;;;;;;11.85;8.30;;;7.60;77.40;;;;;;5013609;28;20033;-76
2024/01/12 02:28:58;;;;;;;10.38;6.82;;;7.60;77.40;;;;;;5014407;28;20041;-76
2024/01/12 02:31:25;;;;;;;11.40;7.60;;;7.60;77.40;;;;;;5030832;28;20051;-76
2024/01/12 02:33:51;;;;;;;9.18;5.90;;;7.60;77.50;;;;;;5014289;28;20037;-76
2024/01/12 02:36:16;;;;;;;8.50;6.72;;;7.60;77.50;;;;;;5029195;28;20049;-76
2024/01/12 02:38:49;;;;;;;12.02;6.13;;;7.70;77.60;;;;;;5014523;28;20086;-76
2024/01/12 02:41:15;;;;;;;6.65;5.32;;;7.60;77.50;;;;;;5030190;28;20053;-76
2024/01/12 02:43:40;;;;;;;8.30;5.20;;;7.60;77.50;;;;;;5030585;28;20041;-76
2024/01/12 02:46:06;;;;;;;9.88;5.07;;;7.60;77.50;;;;;;5012537;28;20037;-76
2024/01/12 02:48:32;;;;;;;10.88;5.22;;;7.60;77.60;;;;;;5028669;28;20500;-76
2024/01/12 02:50:57;;;;;;;10.85;4.65;;;7.60;77.60;;;;;;5028351;28;20396;-76
2024/01/12 02:53:23;;;;;;;9.10;5.80;;;7.60;77.60;;;;;;5030390;28;20068;-76
2024/01/12 02:55:49;;;;;;;11.20;5.72;;;7.70;77.70;;;;;;5028293;28;20534;-76
2024/01/12 02:58:14;;;;;;;7.43;4.75;;;7.60;77.70;;;;;;5027299;28;20452;-76
2024/01/12 03:00:40;;;;;;;7.03;4.38;;;7.60;78.00;;;;;;5012779;28;20540;-76
2024/01/12 03:03:06;;;;;;;7.25;4.05;;;7.60;77.60;;;;;;5013887;28;20485;-76
2024/01/12 03:05:32;;;;;;;7.13;4.60;;;7.60;77.60;;;;;;5029447;28;20041;-76
2024/01/12 03:07:57;;;;;;;7.03;3.78;;;7.60;77.60;;;;;;5029979;28;20070;-76
2024/01/12 03:10:23;;;;;;;6.90;4.00;;;7.60;77.60;;;;;;5012932;28;20033;-76
2024/01/12 03:12:49;;;;;;;7.88;4.45;;;7.60;77.60;;;;;;5012904;28;20133;-76
2024/01/12 03:15:14;;;;;;;7.15;4.72;;;7.60;77.70;;;;;;5013704;28;20037;-76
2024/01/12 03:17:40;;;;;;;10.63;4.68;;;7.70;77.80;;;;;;5028391;28;20050;-76
2024/01/12 03:20:08;;;;;;;7.88;3.95;;;7.70;77.70;;;;;;5028873;28;20038;-76
2024/01/12 03:22:34;;;;;;;5.80;3.78;;;7.70;77.70;;;;;;5015245;28;20288;-76
2024/01/12 03:25:00;;;;;;;8.93;4.25;;;7.70;77.70;;;;;;5030601;28;20073;-76
2024/01/12 03:27:27;;;;;;;5.60;3.70;;;7.70;77.70;;;;;;5013117;28;20445;-76
2024/01/12 03:29:53;;;;;;;6.53;3.55;;;7.70;77.70;;;;;;5012318;28;20276;-76
2024/01/12 03:32:20;;;;;;;6.85;3.40;;;7.70;77.80;;;;;;5014224;28;20040;-76
2024/01/12 03:34:45;;;;;;;5.10;3.28;;;7.70;77.80;;;;;;5029572;28;20038;-76
2024/01/12 03:37:11;;;;;;;3.97;2.83;;;7.70;77.80;;;;;;5029860;28;20034;-76
2024/01/12 03:39:37;;;;;;;8.35;3.67;;;7.70;77.80;;;;;;5028693;28;20078;-76
2024/01/12 03:42:02;;;;;;;5.38;2.97;;;7.70;78.50;;;;;;5034692;28;20037;-76
2024/01/12 03:44:28;;;;;;;7.03;3.00;;;7.70;77.90;;;;;;5028958;28;20041;-76
2024/01/12 03:46:54;;;;;;;5.32;2.75;;;7.70;77.90;;;;;;5013385;28;20413;-76
2024/01/12 03:49:19;;;;;;;5.90;3.20;;;7.70;77.90;;;;;;5028806;28;20064;-76
2024/01/12 03:51:53;;;;;;;9.18;4.22;;;7.70;78.00;;;;;;5028683;28;20056;-76
2024/01/12 03:54:22;;;;;;;4.05;2.70;;;7.70;77.90;;;;;;5023990;28;20073;-76
2024/01/12 03:56:48;;;;;;;5.90;2.90;;;7.70;78.00;;;;;;5029500;28;20428;-75
2024/01/12 03:59:13;;;;;;;5.03;3.03;;;7.60;78.00;;;;;;5029072;28;20042;-75
2024/01/12 04:01:43;;;;;;;5.82;2.63;;;7.70;78.10;;;;;;5011374;28;20053;-76
2024/01/12 04:04:09;;;;;;;3.40;2.92;;;7.60;78.00;;;;;;5014300;28;20045;-75
2024/01/12 04:06:34;;;;;;;7.00;3.78;;;7.70;78.10;;;;;;5030000;28;20044;-75
2024/01/12 04:09:00;;;;;;;4.70;3.08;;;7.70;78.10;;;;;;5030071;28;20037;-75
2024/01/12 04:11:26;;;;;;;6.93;3.05;;;7.70;78.90;;;;;;5028236;28;20044;-76
2024/01/12 04:13:52;;;;;;;4.43;2.95;;;7.70;79.00;;;;;;5021871;28;20107;-75
2024/01/12 04:16:19;;;;;;;5.72;2.55;;;7.70;78.20;;;;;;5037207;28;20120;-75
2024/01/12 04:18:44;;;;;;;4.57;2.88;;;7.70;78.20;;;;;;5014445;28;20041;-75
2024/01/12 04:21:10;;;;;;;2.78;2.38;;;7.70;78.20;;;;;;5029504;28;20171;-75
2024/01/12 04:23:37;;;;;;;4.18;3.30;;;7.70;78.20;;;;;;5040930;28;20107;-75
2024/01/12 04:26:03;;;;;;;4.80;2.67;;;7.70;78.20;;;;;;5030324;28;20428;-75
2024/01/12 04:28:29;;;;;;;5.60;2.65;;;7.70;78.20;;;;;;5029689;28;20068;-75
2024/01/12 04:30:54;;;;;;;3.95;2.80;;;7.70;78.20;;;;;;5044146;28;20041;-75
2024/01/12 04:33:20;;;;;;;4.47;2.95;;;7.70;78.20;;;;;;5027990;28;20044;-76
2024/01/12 04:35:46;;;;;;;4.43;2.10;;;7.70;78.30;;;;;;5074623;28;20575;-75
2024/01/12 04:38:11;;;;;;;6.07;2.63;;;7.70;79.00;;;;;;5012642;28;20107;-75
2024/01/12 04:40:38;;;;;;;4.95;2.33;;;7.70;78.30;;;;;;5012822;28;20037;-75
2024/01/12 04:43:04;;;;;;;5.85;2.55;;;7.70;78.30;;;;;;5010861;28;20037;-75
2024/01/12 04:45:30;;;;;;;3.13;2.28;;;7.70;78.30;;;;;;5019536;28;20033;-75
2024/01/12 04:47:56;;;;;;;4.10;2.50;;;7.70;78.40;;;;;;5027136;28;20037;-75
2024/01/12 04:50:22;;;;;;;6.05;2.50;;;7.70;78.40;;;;;;5012729;28;20250;-76
2024/01/12 04:52:49;;;;;;;3.90;2.42;;;7.70;79.10;;;;;;5028876;28;20072;-76
2024/01/12 04:55:15;;;;;;;4.68;2.55;;;7.70;78.40;;;;;;5028883;28;20053;-76
2024/01/12 04:57:41;;;;;;;5.35;2.95;;;7.70;78.40;;;;;;5012009;28;20123;-76
2024/01/12 05:00:07;;;;;;;4.38;2.53;;;7.70;78.40;;;;;;5011720;28;20558;-75
2024/01/12 05:02:33;;;;;;;2.67;2.38;;;7.70;78.30;;;;;;5011608;28;20037;-76
2024/01/12 05:04:58;;;;;;;4.75;2.53;;;7.70;78.30;;;;;;5028923;28;20414;-75
2024/01/12 05:07:24;;;;;;;5.85;2.50;;;7.70;78.30;;;;;;5030085;28;20052;-75
2024/01/12 05:09:49;;;;;;;5.25;2.97;;;7.70;78.30;;;;;;5013957;28;20040;-76
2024/01/12 05:12:15;;;;;;;5.60;2.72;;;7.70;78.30;;;;;;5016534;28;20303;-75
2024/01/12 05:14:41;;;;;;;4.80;2.30;;;7.70;78.30;;;;;;5016217;28;20038;-75
2024/01/12 05:17:07;;;;;;;3.67;2.42;;;7.70;78.20;;;;;;5030650;28;20064;-75
2024/01/12 05:19:33;;;;;;;4.75;3.28;;;7.70;78.30;;;;;;5015663;28;20037;-76
2024/01/12 05:21:59;;;;;;;5.85;2.67;;;7.70;78.20;;;;;;5014956;28;20067;-75
2024/01/12 05:24:24;;;;;;;3.38;2.42;;;7.70;78.20;;;;;;5015948;28;20073;-75
2024/01/12 05:26:50;;;;;;;4.10;2.22;;;7.70;78.20;;;;;;5015552;28;20040;-75
2024/01/12 05:29:16;;;;;;;4.00;2.50;;;7.70;78.20;;;;;;5015199;28;20037;-75
2024/01/12 05:31:44;;;;;;;4.40;2.40;;;7.70;78.20;;;;;;5032295;28;20040;-75
2024/01/12 05:34:10;;;;;;;3.47;2.25;;;7.70;78.20;;;;;;5031949;28;20035;-75
2024/01/12 05:36:36;;;;;;;5.70;2.55;;;7.70;78.20;;;;;;5015067;28;20404;-75
2024/01/12 05:39:02;;;;;;;2.13;1.92;;;7.70;78.20;;;;;;5034660;28;20096;-75
2024/01/12 05:41:28;;;;;;;6.00;2.53;;;7.70;78.20;;;;;;5032099;28;20045;-75
2024/01/12 05:43:54;;;;;;;3.70;2.10;;;7.70;78.20;;;;;;5031673;28;20040;-75
2024/01/12 05:46:19;;;;;;;2.75;1.95;;;7.70;78.20;;;;;;5031598;28;20116;-75
2024/01/12 05:48:45;;;;;;;4.57;1.95;;;7.70;78.30;;;;;;5014426;28;20120;-75
2024/01/12 05:51:15;;;;;;;5.50;2.03;;;7.70;78.30;;;;;;5014571;28;20378;-75
2024/01/12 05:53:41;;;;;;;4.03;2.13;;;7.70;78.30;;;;;;5030338;28;20096;-75
2024/01/12 05:56:08;;;;;;;5.47;2.38;;;7.70;78.30;;;;;;5030415;28;20041;-75
2024/01/12 05:58:34;;;;;;;3.40;1.95;;;7.70;78.30;;;;;;5030245;28;20041;-75
2024/01/12 06:00:59;;;;;;;5.80;2.20;;;7.70;78.40;;;;;;5039398;28;20045;-75
2024/01/12 06:03:28;;;;;;;3.30;2.03;;;7.70;78.40;;;;;;5031597;28;20045;-75
2024/01/12 06:05:57;;;;;;;3.10;2.00;;;7.70;78.40;;;;;;5030910;28;20037;-75
2024/01/12 06:08:23;;;;;;;4.07;2.10;;;7.70;79.20;;;;;;5028243;28;20051;-75
2024/01/12 06:10:50;;;;;;;4.05;1.73;;;7.70;78.50;;;;;;5034577;28;20037;-75
2024/01/12 06:13:16;;;;;;;4.88;1.83;;;7.70;78.40;;;;;;5015382;28;20619;-75
2024/01/12 06:15:42;;;;;;;3.17;2.30;;;7.70;78.60;;;;;;5014718;28;20041;-75
2024/01/12 06:18:08;;;;;;;4.05;1.90;;;7.70;78.60;;;;;;5030771;28;20045;-75
2024/01/12 06:20:34;;;;;;;6.85;2.15;;;7.70;78.60;;;;;;5021227;28;20045;-75
2024/01/12 06:22:59;;;;;;;4.80;2.30;;;7.70;78.60;;;;;;5015314;28;20083;-75
2024/01/12 06:25:25;;;;;;;4.00;2.13;;;7.70;78.60;;;;;;5014933;28;20133;-75
2024/01/12 06:27:51;;;;;;;4.13;1.90;;;7.70;78.60;;;;;;5014172;28;20128;-75
2024/01/12 06:30:17;;;;;;;3.03;1.67;;;7.70;78.60;;;;;;5014850;28;20041;-75
2024/01/12 06:32:43;;;;;;;2.50;1.98;;;7.70;78.70;;;;;;5030420;28;20096;-75
2024/01/12 06:35:11;;;;;;;7.40;2.13;;;7.70;78.70;;;;;;5015065;28;20084;-75
2024/01/12 06:37:37;;;;;;;4.85;2.10;;;7.70;78.70;;;;;;5031306;28;20476;-75
2024/01/12 06:40:04;;;;;;;4.75;1.80;;;7.70;78.60;;;;;;5014115;28;20076;-75
2024/01/12 06:42:31;;;;;;;3.55;2.33;;;7.70;78.70;;;;;;5029683;28;20037;-75
2024/01/12 06:44:56;;;;;;;3.55;2.00;;;7.80;78.70;;;;;;5063772;28;20075;-75
2024/01/12 06:47:22;;;;;;;4.65;1.83;;;7.70;78.60;;;;;;5029862;28;20120;-75
2024/01/12 06:49:48;;;;;;;4.35;1.90;;;7.70;78.70;;;;;;5031434;28;20048;-75
2024/01/12 06:52:14;;;;;;;3.38;1.88;;;7.70;78.70;;;;;;5071284;28;20183;-75
2024/01/12 06:54:43;;;;;;;3.40;1.75;;;7.70;78.70;;;;;;5015621;28;20037;-75
2024/01/12 06:57:09;;;;;;;3.13;1.52;;;7.70;78.60;;;;;;5029534;28;20048;-75
2024/01/12 06:59:35;;;;;;;6.03;2.08;;;7.70;78.70;;;;;;5029433;28;20038;-75
2024/01/12 07:02:01;;;;;;;5.00;2.42;;;7.80;78.70;;;;;;5037047;28;20128;-75
2024/01/12 07:04:27;;;;;;;3.63;1.90;;;7.70;78.70;;;;;;5030831;28;20048;-75
2024/01/12 07:06:52;;;;;;;3.40;2.00;;;7.70;79.40;;;;;;5033950;28;20040;-75
2024/01/12 07:09:19;;;;;;;7.57;3.10;;;7.70;78.70;;;;;;5025019;28;20123;-75
2024/01/12 07:11:45;;;;;;;4.07;1.90;;;7.80;78.70;;;;;;5031137;28;20191;-75
2024/01/12 07:14:14;;;;;;;2.70;2.20;;;7.70;78.70;;;;;;5037204;28;20037;-75
2024/01/12 07:16:40;;;;;;;4.88;2.05;;;7.80;78.70;;;;;;5014591;28;20033;-75
2024/01/12 07:19:06;;;;;;;5.40;2.97;;;7.80;78.70;;;;;;5030281;28;20033;-75
2024/01/12 07:21:35;;;;;;;2.97;2.67;;;7.70;78.70;;;;;;5014132;28;20038;-75
2024/01/12 07:24:02;;;;;;;5.25;2.30;;;7.80;78.70;;;;;;5013522;28;20038;-75
2024/01/12 07:26:28;;;;;;;2.38;2.17;;;7.80;78.70;;;;;;5014025;28;20163;-75
2024/01/12 07:28:53;;;;;;;3.65;2.08;;;7.80;78.70;;;;;;5011337;28;20045;-75
2024/01/12 07:31:19;;;;;;;6.78;2.20;;;7.80;78.70;;;;;;5034086;28;20037;-75
2024/01/12 07:33:45;;;;;;;4.63;2.55;;;7.80;78.70;;;;;;5035702;28;20049;-75
2024/01/12 07:36:11;;;;;;;4.25;2.45;;;7.80;78.70;;;;;;5034669;28;20085;-76
2024/01/12 07:38:36;;;;;;;3.60;2.45;;;7.80;78.70;;;;;;5040119;28;20039;-75
2024/01/12 07:41:02;;;;;;;2.95;2.20;;;7.80;78.70;;;;;;5037895;28;20092;-75
2024/01/12 07:43:30;;;;;;;4.03;2.70;;;7.80;78.70;;;;;;5017191;28;20471;-75
2024/01/12 07:45:56;;;;;;;5.53;2.25;;;7.80;78.70;;;;;;5033601;28;20135;-75
2024/01/12 07:48:22;;;;;;;5.78;2.72;;;7.80;79.40;;;;;;5034384;28;20097;-75
2024/01/12 07:50:48;;;;;;;3.55;2.72;;;7.80;78.70;;;;;;5017154;28;20124;-75
2024/01/12 07:53:14;;;;;;;3.65;2.50;;;7.80;78.70;;;;;;5035189;28;20036;-75
2024/01/12 07:55:39;;;;;;;5.50;3.20;;;7.80;78.80;;;;;;5038226;28;20553;-75
2024/01/12 07:58:05;;;;;;;4.80;2.30;;;7.80;78.80;;;;;;5027663;28;20041;-75
2024/01/12 08:00:32;;;;;;;4.05;2.55;;;7.80;78.80;;;;;;5037989;28;20239;-75
2024/01/12 08:02:57;;;;;;;4.15;2.58;;;7.80;79.50;;;;;;5034528;28;20045;-75
2024/01/12 08:05:23;;;;;;;5.47;2.75;;;7.80;78.80;;;;;;5032835;28;20037;-75
2024/01/12 08:07:49;;;;;;;5.38;3.10;;;7.80;78.90;;;;;;5018778;28;20037;-75
2024/01/12 08:10:16;;;;;;;5.93;2.60;;;7.80;78.90;;;;;;5026212;28;20536;-75
2024/01/12 08:12:41;;;;;;;7.18;3.25;;;7.80;78.90;;;;;;5034038;28;20087;-74
2024/01/12 08:15:10;;;;;;;7.97;3.03;;;7.90;79.00;;;;;;5037659;28;20037;-75
2024/01/12 08:17:40;;;;;;;7.03;3.22;;;7.80;78.90;;;;;;5038251;28;20123;-75
2024/01/12 08:20:06;;;;;;;4.18;2.33;;;7.90;79.10;;;;;;5038611;28;20412;-75
2024/01/12 08:22:32;;;;;;;4.95;2.67;;;7.90;79.80;;;;;;5037149;28;20083;-74
2024/01/12 08:24:58;;;;;;;4.00;2.92;;;7.80;79.00;;;;;;5036032;28;20489;-75
2024/01/12 08:27:24;;;;;;;5.85;2.72;;;7.90;79.10;;;;;;5065457;28;20108;-76
2024/01/12 08:29:50;;;;;;;3.65;2.50;;;7.80;79.10;;;;;;5031904;28;20480;-76
2024/01/12 08:32:15;;;;;;;4.80;2.30;;;7.80;79.10;;;;;;5069970;28;20033;-75
2024/01/12 08:34:41;;;;;;;3.10;2.22;;;7.90;79.20;;;;;;5033579;28;20096;-75
2024/01/12 08:37:07;;;;;;;4.22;1.98;;;7.80;79.10;;;;;;5035185;28;20048;-75
2024/01/12 08:39:36;;;;;;;4.32;2.88;;;7.90;79.10;;;;;;5017438;28;20041;-75
2024/01/12 08:42:02;;;;;;;3.03;2.55;;;7.90;79.20;;;;;;5065527;28;20033;-75
2024/01/12 08:44:28;;;;;;;4.50;3.03;;;7.90;79.20;;;;;;5069340;28;20037;-75
2024/01/12 08:46:53;;;;;;;3.40;2.15;;;7.90;79.20;;;;;;5042534;28;20089;-75
2024/01/12 08:49:20;;;;;;;4.20;2.30;;;7.90;79.20;;;;;;5072746;28;20541;-75
2024/01/12 08:51:47;;;;;;;4.80;3.05;;;7.90;79.20;;;;;;5021038;28;20111;-75
2024/01/12 08:54:13;;;;;;;4.60;3.03;;;7.90;79.20;;;;;;5019772;28;20069;-75
2024/01/12 08:56:39;;;;;;;6.10;2.75;;;7.90;79.30;;;;;;5071828;28;20445;-75
2024/01/12 08:59:05;;;;;;;5.65;2.50;;;7.90;79.20;;;;;;5070799;28;20041;-75
2024/01/12 09:01:30;;;;;;;6.32;2.58;;;7.90;79.30;;;;;;5035927;28;20068;-75
2024/01/12 09:03:56;;;;;;;4.28;2.20;;;7.90;79.30;;;;;;5022544;28;20049;-75
2024/01/12 09:06:23;;;;;;;5.18;2.53;;;7.90;79.30;;;;;;5022389;28;20037;-75
2024/01/12 09:08:50;;;;;;;7.13;2.30;;;7.90;79.30;;;;;;5037806;28;20041;-75
2024/01/12 09:11:15;;;;;;;3.40;2.65;;;7.90;79.30;;;;;;5031792;28;20103;-75
2024/01/12 09:13:41;;;;;;;3.88;2.50;;;7.90;79.30;;;;;;5021127;28;20056;-75
2024/01/12 09:16:10;;;;;;;4.65;2.33;;;7.90;79.30;;;;;;5039866;28;20049;-75
2024/01/12 09:18:36;;;;;;;6.05;2.85;;;7.90;79.40;;;;;;5038481;28;20049;-75
2024/01/12 09:21:01;;;;;;;4.28;2.63;;;7.90;79.40;;;;;;5024296;28;20068;-75
2024/01/12 09:23:27;;;;;;;5.20;2.75;;;7.90;79.40;;;;;;5039989;28;20088;-75
2024/01/12 09:25:54;;;;;;;4.65;2.55;;;7.90;79.40;;;;;;5039669;28;20029;-75
2024/01/12 09:28:20;;;;;;;5.47;2.50;;;7.90;79.50;;;;;;5037883;28;20473;-75
2024/01/12 09:30:47;;;;;;;3.35;2.40;;;7.90;79.40;;;;;;5041184;28;20116;-75
2024/01/12 09:33:13;;;;;;;8.43;3.00;;;7.90;79.50;;;;;;5034199;28;20489;-75
2024/01/12 09:35:39;;;;;;;7.15;2.42;;;7.90;79.50;;;;;;5018417;28;20059;-75
2024/01/12 09:38:05;;;;;;;6.38;2.90;;;7.90;79.50;;;;;;5036998;28;20037;-75
2024/01/12 09:40:32;;;;;;;5.78;2.78;;;8.00;79.60;;;;;;5022114;28;20405;-75
2024/01/12 09:43:00;;;;;;;4.53;2.20;;;8.00;79.60;;;;;;5034141;28;20037;-75
2024/01/12 09:45:26;;;;;;;;;;;8.00;79.60;;;;;;5021481;28;20045;-76
2024/01/12 09:47:53;;;;;;;5.13;2.53;;;7.90;79.60;;;;;;5041220;28;19917;-75
2024/01/12 09:50:22;;;;;;;8.27;2.63;;;8.00;79.60;;;;;;5037304;28;20033;-75
2024/01/12 09:52:51;;;;;;;7.13;2.92;;;8.00;79.80;;;;;;5011694;28;20436;-75
2024/01/12 09:55:17;;;;;;;3.72;2.20;;;8.00;79.70;;;;;;5035851;28;20053;-74
2024/01/12 09:57:46;;;;;;;4.10;2.35;;;8.00;79.60;;;;;;5037340;28;20079;-74
2024/01/12 10:00:16;;;;;;;4.78;2.67;;;8.00;79.70;;;;;;5032589;28;20041;-75
2024/01/12 10:02:42;;;;;;;5.55;2.70;;;8.00;79.70;;;;;;5018312;28;20034;-74
2024/01/12 10:05:08;;;;;;;4.38;2.33;;;8.00;79.70;;;;;;5064153;28;20041;-74
2024/01/12 10:07:34;;;;;;;9.82;2.78;;;8.00;79.70;;;;;;5021907;28;20909;-74
2024/01/12 10:10:00;;;;;;;4.93;2.35;;;8.00;79.70;;;;;;5071902;28;20124;-74
2024/01/12 10:12:26;;;;;;;6.10;2.38;;;8.00;79.80;;;;;;5036825;28;20041;-74
2024/01/12 10:15:02;;;;;;;4.68;2.33;;;8.00;79.70;;;;;;5036416;28;20041;-74
2024/01/12 10:17:28;;;;;;;3.88;2.00;;;8.00;79.80;;;;;;5035176;28;20037;-74
2024/01/12 10:19:55;;;;;;;5.05;2.03;;;8.00;79.80;;;;;;5032384;28;20160;-74
2024/01/12 10:22:21;;;;;;;5.90;2.88;;;8.00;79.70;;;;;;5034161;28;20128;-74
2024/01/12 10:24:46;;;;;;;4.25;2.28;;;8.00;79.80;;;;;;5017613;28;20117;-74
2024/01/12 10:27:13;;;;;;;6.28;2.70;;;8.00;79.70;;;;;;5020411;28;20046;-74
2024/01/12 10:29:39;;;;;;;5.10;2.20;;;8.10;79.80;;;;;;5029113;28;20152;-74
2024/01/12 10:32:05;;;;;;;6.60;2.45;;;8.10;79.80;;;;;;5035283;28;20124;-74
2024/01/12 10:34:33;;;;;;;6.15;2.20;;;8.10;79.80;;;;;;5034285;28;20059;-74
2024/01/12 10:36:59;;;;;;;;;;;8.10;79.80;;;;;;5011097;28;20059;-73
2024/01/12 10:39:27;;;;;;;5.95;2.22;;;8.10;79.90;;;;;;5017281;28;20011;-73
2024/01/12 10:41:57;;;;;;;4.28;2.00;;;8.10;80.50;;;;;;5062838;28;20523;-73
2024/01/12 10:44:27;;;;;;;6.82;1.95;;;8.10;79.80;;;;;;5063631;28;20033;-73
2024/01/12 10:46:59;;;;;;;7.45;2.92;;;8.10;79.70;;;;;;5044377;28;20038;-73
2024/01/12 10:49:26;;;;;;;6.40;2.20;;;8.10;79.70;;;;;;5036518;28;20033;-73
2024/01/12 10:51:58;;;;;;;5.97;2.22;;;8.10;79.90;;;;;;5068115;28;20044;-73
2024/01/12 10:54:29;;;;;;;5.00;2.05;;;8.10;79.90;;;;;;5035042;28;20504;-73
2024/01/12 10:56:55;;;;;;;6.15;2.00;;;8.20;80.00;;;;;;5030773;28;20088;-73
2024/01/12 10:59:25;;;;;;;4.80;2.75;;;8.20;80.00;;;;;;5033577;28;20604;-73
2024/01/12 11:01:52;;;;;;;5.55;2.53;;;8.30;80.00;;;;;;5039301;28;20045;-73
2024/01/12 11:04:19;;;;;;;6.10;1.90;;;8.30;80.00;;;;;;5013943;28;20492;-73
2024/01/12 11:06:48;;;;;;;4.05;2.00;;;8.30;79.90;;;;;;5019416;28;20041;-73
2024/01/12 11:09:17;;;;;;;4.72;2.30;;;8.30;79.90;;;;;;5034062;28;20513;-73
2024/01/12 11:11:53;;;;;;;4.95;2.03;;;8.30;79.90;;;;;;5036286;28;20049;-73
2024/01/12 11:14:20;;;;;;;5.57;2.33;;;8.40;79.90;;;;;;5039453;28;20047;-73
2024/01/12 11:16:46;;;;;;;5.03;2.05;;;8.40;79.90;;;;;;5037809;28;20033;-73
2024/01/12 11:19:15;;;;;;;5.75;2.20;;;8.40;79.80;;;;;;5036484;28;20063;-73
2024/01/12 11:21:42;;;;;;;4.97;1.70;;;8.50;79.80;;;;;;5020711;28;20045;-73
2024/01/12 11:24:11;;;;;;;3.75;2.55;;;8.40;80.10;;;;;;5023254;28;20039;-73
2024/01/12 11:26:38;;;;;;;5.63;2.17;;;8.40;80.10;;;;;;5015947;28;20508;-73
2024/01/12 11:29:04;;;;;;;6.95;2.38;;;8.40;80.10;;;;;;5051406;28;20048;-73
2024/01/12 11:31:30;;;;;;;6.65;2.75;;;8.40;80.10;;;;;;5046049;28;20045;-73
2024/01/12 11:34:03;;;;;;;4.80;2.20;;;8.40;80.00;;;;;;5019411;28;20052;-73
2024/01/12 11:36:29;;;;;;;3.85;1.83;;;8.50;80.10;;;;;;5032875;28;20040;-73
2024/01/12 11:39:01;;;;;;;5.10;1.95;;;8.50;80.00;;;;;;5024761;28;20032;-73
2024/01/12 11:41:29;;;;;;;5.70;2.22;;;8.50;80.10;;;;;;5017354;28;20061;-73
2024/01/12 11:43:54;;;;;;;5.05;1.85;;;8.50;80.00;;;;;;5035064;28;20045;-73
2024/01/12 11:46:23;;;;;;;4.32;1.73;;;8.40;80.00;;;;;;5036494;28;20029;-73
2024/01/12 11:48:50;;;;;;;6.25;2.10;;;8.40;80.00;;;;;;5018076;28;20038;-73
2024/01/12 11:51:28;;;;;;;4.60;2.35;;;8.50;80.00;;;;;;5049587;28;20508;-73
2024/01/12 11:53:57;;;;;;;5.53;1.83;;;8.50;80.10;;;;;;5016299;28;20094;-73
2024/01/12 11:56:24;;;;;;;5.35;1.85;;;8.50;80.10;;;;;;5036763;28;20041;-73
2024/01/12 11:58:54;;;;;;;5.53;2.10;;;8.40;80.00;;;;;;5029467;28;20493;-73
2024/01/12 12:01:20;;;;;;;3.17;1.67;;;8.40;80.10;;;;;;5035733;28;20064;-73
2024/01/12 12:03:46;;;;;;;6.05;2.45;;;8.50;80.10;;;;;;5011906;28;20044;-73
2024/01/12 12:06:12;;;;;;;5.65;1.70;;;8.40;80.10;;;;;;5028293;28;20182;-73
2024/01/12 12:08:42;;;;;;;4.82;1.67;;;8.50;80.20;;;;;;5038863;28;20067;-73
2024/01/12 12:11:08;;;;;;;4.00;1.90;;;8.50;80.20;;;;;;5046090;28;20052;-73
2024/01/12 12:13:35;;;;;;;3.95;2.13;;;8.40;80.20;;;;;;5015856;28;20052;-73
2024/01/12 12:16:02;;;;;;;6.90;2.20;;;8.40;80.20;;;;;;5016324;28;20397;-73
2024/01/12 12:18:31;;;;;;;5.70;2.28;;;8.50;80.30;;;;;;5019555;28;20041;-73
2024/01/12 12:20:59;;;;;;;5.15;1.80;;;8.50;80.30;;;;;;5030085;28;20087;-73
2024/01/12 12:23:25;;;;;;;5.80;1.92;;;8.50;80.30;;;;;;5012954;28;20041;-73
2024/01/12 12:25:51;;;;;;;4.63;1.98;;;8.50;81.00;;;;;;5027318;28;20037;-73
2024/01/12 12:28:17;;;;;;;5.38;1.75;;;8.50;80.40;;;;;;5040926;28;20047;-73
2024/01/12 12:30:43;;;;;;;5.93;2.33;;;8.50;80.30;;;;;;5033233;28;20048;-73
2024/01/12 12:33:10;;;;;;;3.38;1.48;;;8.50;80.40;;;;;;5015800;28;20066;-73
2024/01/12 12:35:36;;;;;;;5.13;1.63;;;8.50;80.40;;;;;;5036086;28;21132;-73
2024/01/12 12:38:02;;;;;;;4.00;1.80;;;8.50;80.40;;;;;;5018660;28;20367;-73
2024/01/12 12:40:28;;;;;;;4.70;1.77;;;8.50;80.40;;;;;;5020156;28;20041;-72
2024/01/12 12:42:54;;;;;;;5.72;2.03;;;8.50;80.40;;;;;;5031178;28;20071;-73
2024/01/12 12:45:20;;;;;;;5.63;1.50;;;8.50;80.50;;;;;;5032584;28;20076;-72
2024/01/12 12:47:46;;;;;;;4.20;1.67;;;8.50;80.40;;;;;;5034266;28;20443;-73